Time;durP1;ratioP1;P1;durP2;ratioP2;P2;SDS_P1;SDS_P2;PMS_P1;PMS_P2;Temp;Humidity;BMP_temperature;BMP_pressure;BME280_temperature;BME280_humidity;BME280_pressure;Samples;Min_cycle;Max_cycle;Signal;HPM_P1;HPM_P2
2022/06/22 00:01:33;;;;;;;5.57;3.42;;;;;;;13.75;73.39;97534.41;5052490;28;20043;-64
2022/06/22 00:04:00;;;;;;;3.47;3.10;;;;;;;13.76;73.17;97542.09;5035669;28;20045;-62
2022/06/22 00:06:34;;;;;;;5.22;3.10;;;;;;;13.78;73.08;97539.13;5052160;28;20415;-62
2022/06/22 00:09:01;;;;;;;4.60;3.47;;;;;;;13.76;73.31;97533.31;5019035;28;20037;-62
2022/06/22 00:11:26;;;;;;;5.78;3.55;;;;;;;13.80;73.45;97537.75;5052036;28;20052;-62
2022/06/22 00:13:55;;;;;;;3.72;3.30;;;;;;;13.79;73.50;97530.06;5053272;28;20041;-64
2022/06/22 00:16:34;;;;;;;5.07;3.65;;;;;;;13.79;73.36;97538.81;5051975;28;20123;-62
2022/06/22 00:19:00;;;;;;;7.38;3.97;;;;;;;13.82;73.64;97540.09;5052296;28;20045;-63
2022/06/22 00:21:36;;;;;;;4.32;3.45;;;;;;;13.82;73.42;97546.22;5051915;28;20041;-61
2022/06/22 00:24:36;;;;;;;6.85;3.72;;;;;;;13.79;73.73;97538.03;5051843;28;20087;-62
2022/06/22 00:27:19;;;;;;;5.03;3.70;;;;;;;13.75;73.78;97548.50;5051535;28;20056;-63
2022/06/22 00:29:46;;;;;;;6.07;3.65;;;;;;;13.75;73.96;97540.53;5051796;28;20060;-63
2022/06/22 00:32:27;;;;;;;4.57;3.72;;;;;;;13.77;73.76;97551.69;5051850;28;20498;-63
2022/06/22 00:34:52;;;;;;;;;;;;;;;13.78;74.06;97547.91;5052346;28;20063;-63
2022/06/22 00:37:22;;;;;;;5.38;3.60;;;;;;;13.77;73.89;97550.88;5053092;28;19925;-63
2022/06/22 00:39:50;;;;;;;6.22;3.92;;;;;;;13.80;74.05;97552.94;5051535;28;20041;-63
2022/06/22 00:42:29;;;;;;;5.00;3.42;;;;;;;13.81;74.12;97555.28;5052862;28;20414;-63
2022/06/22 00:45:05;;;;;;;4.68;3.75;;;;;;;13.82;73.94;97553.41;5051329;28;20051;-62
2022/06/22 00:47:33;;;;;;;5.30;3.97;;;;;;;13.89;73.67;97558.34;5051642;28;20041;-62
2022/06/22 00:50:07;;;;;;;6.88;3.65;;;;;;;13.94;73.34;97551.00;5052549;28;20043;-61
2022/06/22 00:52:39;;;;;;;4.40;3.80;;;;;;;13.94;73.62;97551.00;5052909;28;20037;-62
2022/06/22 00:55:26;;;;;;;6.20;3.90;;;;;;;14.01;73.44;97556.69;5052520;28;20040;-63
2022/06/22 00:58:02;;;;;;;5.75;4.03;;;;;;;14.06;73.50;97550.47;5051412;28;20453;-62
2022/06/22 01:00:32;;;;;;;5.40;3.80;;;;;;;14.04;73.03;97549.97;5034643;28;20102;-62
2022/06/22 01:03:15;;;;;;;6.35;4.00;;;;;;;14.04;73.38;97565.94;5052673;28;20124;-64
2022/06/22 01:05:50;;;;;;;7.22;4.03;;;;;;;14.00;73.92;97563.13;5034604;28;20052;-64
2022/06/22 01:08:40;;;;;;;5.50;4.28;;;;;;;13.96;73.61;97564.78;5052771;28;20049;-63
2022/06/22 01:12:16;;;;;;;6.25;4.20;;;;;;;13.93;73.95;97562.75;5051354;28;20045;-63
2022/06/22 01:14:02;;;;;;;4.95;3.88;;;;;;;13.94;74.19;97574.16;5051125;28;20040;-61
2022/06/22 01:16:34;;;;;;;6.88;4.43;;;;;;;13.87;73.90;97563.94;5034575;28;20045;-62
2022/06/22 01:19:03;;;;;;;8.48;4.57;;;;;;;13.86;73.91;97565.06;5052035;28;20060;-63
2022/06/22 01:21:37;;;;;;;6.25;4.63;;;;;;;13.80;74.10;97568.94;5050892;28;20056;-62
2022/06/22 01:24:23;;;;;;;6.53;4.82;;;;;;;13.78;74.15;97566.56;5052180;28;20475;-63
2022/06/22 01:27:23;;;;;;;6.22;4.90;;;;;;;13.83;73.71;97574.44;5034296;28;20049;-63
2022/06/22 01:29:54;;;;;;;6.28;4.57;;;;;;;13.79;74.31;97578.75;5051833;28;20102;-62
2022/06/22 01:32:24;;;;;;;8.00;5.40;;;;;;;13.76;74.34;97581.25;5034017;28;20135;-62
2022/06/22 01:34:55;;;;;;;7.95;5.60;;;;;;;13.74;74.60;97586.91;5050540;28;20072;-63
2022/06/22 01:37:27;;;;;;;10.05;5.57;;;;;;;13.74;74.06;97589.56;5017671;28;20515;-65
2022/06/22 01:40:16;;;;;;;7.65;4.75;;;;;;;13.74;74.58;97581.56;5050762;28;20048;-63
2022/06/22 01:43:05;;;;;;;8.23;5.57;;;;;;;13.73;74.38;97576.53;5050032;28;20518;-62
2022/06/22 01:45:37;;;;;;;8.00;5.70;;;;;;;13.71;74.74;97571.53;5050429;28;20037;-63
2022/06/22 01:48:12;;;;;;;7.65;5.72;;;;;;;13.72;74.63;97583.75;5050253;28;20123;-62
2022/06/22 01:50:46;;;;;;;9.40;5.05;;;;;;;13.74;74.43;97586.13;5050363;28;20044;-62
2022/06/22 01:53:32;;;;;;;12.63;5.65;;;;;;;13.72;74.52;97574.97;5050487;28;20132;-62
2022/06/22 01:56:15;;;;;;;9.52;5.72;;;;;;;13.77;74.31;97580.19;5034035;28;20080;-62
2022/06/22 01:58:46;;;;;;;8.82;6.43;;;;;;;13.73;74.39;97576.53;5033706;28;20139;-62
2022/06/22 02:01:34;;;;;;;8.93;5.60;;;;;;;13.77;74.43;97582.84;5050083;28;20045;-63
2022/06/22 02:04:16;;;;;;;8.93;5.00;;;;;;;13.78;74.50;97577.19;5051292;28;20523;-63
2022/06/22 02:10:16;;;;;;;9.20;6.63;;;;;;;13.84;74.42;97583.19;5050162;28;20516;-63
2022/06/22 02:12:57;;;;;;;9.52;5.90;;;;;;;13.88;74.57;97583.38;5049812;28;20580;-63
2022/06/22 02:15:22;;;;;;;10.27;6.32;;;;;;;13.82;74.58;97582.72;5049910;28;20465;-62
2022/06/22 02:17:49;;;;;;;10.73;5.82;;;;;;;13.87;74.61;97579.94;5050130;28;20052;-64
2022/06/22 02:20:17;;;;;;;7.70;5.22;;;;;;;13.93;74.43;97596.56;5033473;28;20502;-64
2022/06/22 02:22:43;;;;;;;11.15;6.60;;;;;;;13.95;74.39;97591.75;5051442;28;20053;-64
2022/06/22 02:25:09;;;;;;;8.93;6.13;;;;;;;13.99;74.12;97593.47;5050150;28;20047;-63
2022/06/22 02:27:36;;;;;;;9.48;6.47;;;;;;;14.02;74.03;97598.22;5033684;28;20044;-62
2022/06/22 02:30:02;;;;;;;10.73;5.57;;;;;;;13.99;73.96;97604.13;5049858;28;20412;-62
2022/06/22 02:32:40;;;;;;;9.82;6.07;;;;;;;13.93;74.34;97604.56;5051375;28;20045;-63
2022/06/22 02:35:08;;;;;;;9.77;6.28;;;;;;;13.92;74.43;97600.34;5050202;28;20044;-63
2022/06/22 02:37:40;;;;;;;8.27;6.50;;;;;;;13.95;74.08;97605.06;5049954;28;20388;-63
2022/06/22 02:40:10;;;;;;;8.48;6.20;;;;;;;13.90;74.55;97605.19;5049728;28;20041;-63
2022/06/22 02:45:20;;;;;;;10.55;6.53;;;;;;;13.94;74.15;97608.78;5050843;28;20049;-63
2022/06/22 02:47:52;;;;;;;10.43;6.60;;;;;;;13.96;74.26;97602.09;5049796;28;20049;-63
2022/06/22 02:50:18;;;;;;;10.90;6.50;;;;;;;13.99;74.06;97609.47;5049635;28;20503;-64
2022/06/22 02:52:47;;;;;;;8.95;6.55;;;;;;;13.96;74.36;97598.63;5051272;28;20095;-64
2022/06/22 02:55:16;;;;;;;11.50;6.95;;;;;;;14.02;74.03;97605.41;5051809;28;20102;-63
2022/06/22 02:57:56;;;;;;;11.25;6.28;;;;;;;14.07;73.76;97618.63;5053577;28;20111;-63
2022/06/22 03:00:25;;;;;;;11.27;6.70;;;;;;;14.08;73.60;97609.53;5055055;28;20041;-62
2022/06/22 03:02:57;;;;;;;10.45;6.07;;;;;;;14.07;74.01;97605.31;5054881;28;20044;-62
2022/06/22 03:05:24;;;;;;;9.32;5.93;;;;;;;14.15;73.35;97611.75;5053387;28;20040;-62
2022/06/22 03:07:52;;;;;;;8.07;5.93;;;;;;;14.17;73.94;97615.69;5036467;28;20559;-63
2022/06/22 03:10:23;;;;;;;10.70;6.00;;;;;;;14.14;73.81;97615.53;5036558;28;20044;-63
2022/06/22 03:12:49;;;;;;;8.90;5.75;;;;;;;14.18;73.81;97613.84;5054347;28;20426;-64
2022/06/22 03:15:19;;;;;;;10.95;6.15;;;;;;;14.18;73.84;97616.50;5053519;28;20064;-64
2022/06/22 03:17:45;;;;;;;10.05;6.30;;;;;;;14.25;73.64;97612.31;5054713;28;20067;-65
2022/06/22 03:20:24;;;;;;;15.73;6.13;;;;;;;14.25;73.28;97616.84;5054211;28;20534;-64
2022/06/22 03:22:59;;;;;;;10.20;5.95;;;;;;;14.28;73.37;97619.69;5036357;28;20045;-63
2022/06/22 03:25:45;;;;;;;8.02;6.03;;;;;;;14.30;73.48;97622.06;5052979;28;20573;-64
2022/06/22 03:28:16;;;;;;;9.48;6.07;;;;;;;14.35;73.23;97626.47;5053211;28;20061;-64
2022/06/22 03:30:48;;;;;;;9.70;6.05;;;;;;;14.34;73.57;97632.91;5036329;28;20033;-64
2022/06/22 03:33:23;;;;;;;9.65;6.55;;;;;;;14.33;73.17;97632.13;5054496;28;20052;-64
2022/06/22 03:35:53;;;;;;;8.30;5.50;;;;;;;14.38;72.87;97639.97;5036335;28;20041;-63
2022/06/22 03:38:42;;;;;;;12.80;5.90;;;;;;;14.34;72.73;97641.69;5053947;28;20099;-63
2022/06/22 03:41:17;;;;;;;8.13;5.15;;;;;;;14.37;72.97;97648.28;5053024;28;20041;-63
2022/06/22 03:43:56;;;;;;;8.18;4.82;;;;;;;14.42;72.38;97650.84;5036019;28;20049;-62
2022/06/22 03:46:43;;;;;;;6.20;5.30;;;;;;;14.49;72.54;97651.19;5052869;28;20068;-62
2022/06/22 03:49:28;;;;;;;7.93;5.45;;;;;;;14.48;72.36;97653.06;5053970;28;20072;-63
2022/06/22 03:52:17;;;;;;;7.40;4.70;;;;;;;14.47;71.93;97656.81;5052801;28;20415;-63
2022/06/22 03:54:45;;;;;;;6.57;4.68;;;;;;;14.51;71.95;97665.00;5053431;28;20041;-62
2022/06/22 03:57:13;;;;;;;6.60;4.75;;;;;;;14.52;72.50;97667.38;5052529;28;20441;-63
2022/06/22 03:59:41;;;;;;;8.35;5.13;;;;;;;14.60;72.07;97663.19;5053404;28;20037;-61
2022/06/22 04:02:06;;;;;;;6.38;4.82;;;;;;;14.59;72.59;97664.28;5053570;28;20056;-61
2022/06/22 04:04:33;;;;;;;5.82;4.70;;;;;;;14.56;71.78;97659.56;5053210;28;20037;-63
2022/06/22 04:06:59;;;;;;;10.35;5.55;;;;;;;14.62;72.34;97663.69;5053203;28;20040;-62
2022/06/22 04:09:26;;;;;;;7.18;4.47;;;;;;;14.53;72.47;97671.63;5053456;28;20033;-63
2022/06/22 04:12:00;;;;;;;7.78;4.45;;;;;;;14.59;72.28;97666.97;5051801;28;20447;-63
2022/06/22 04:14:40;;;;;;;8.75;4.40;;;;;;;14.70;72.05;97662.13;5053179;28;20044;-63
2022/06/22 04:17:10;;;;;;;8.13;4.27;;;;;;;14.62;72.25;97665.53;5053643;28;20179;-63
2022/06/22 04:19:40;;;;;;;;;;;;;;;14.62;72.84;97658.34;5035721;28;21075;-63
2022/06/22 04:22:14;;;;;;;5.70;4.80;;;;;;;14.66;72.55;97669.19;5051911;28;20035;-64
2022/06/22 04:24:49;;;;;;;8.00;3.95;;;;;;;14.76;72.34;97663.56;5052160;28;20402;-63
2022/06/22 04:27:38;;;;;;;5.40;4.30;;;;;;;14.85;71.91;97677.75;5051959;28;20064;-64
2022/06/22 04:30:18;;;;;;;5.70;3.88;;;;;;;14.89;71.31;97673.38;5051541;28;20051;-63
2022/06/22 04:32:45;;;;;;;5.55;3.83;;;;;;;14.88;71.61;97692.34;5053050;28;20041;-64
2022/06/22 04:35:25;;;;;;;5.55;4.18;;;;;;;14.87;71.63;97680.13;5052075;28;20525;-64
2022/06/22 04:38:10;;;;;;;;;;;;;;;14.95;71.33;97680.16;5035859;28;20136;-63
2022/06/22 04:40:36;;;;;;;5.00;3.95;;;;;;;15.05;71.30;97684.44;5035389;28;19920;-64
2022/06/22 04:43:04;;;;;;;5.28;3.95;;;;;;;15.11;70.46;97685.88;5034555;28;20052;-64
2022/06/22 04:45:35;;;;;;;5.88;4.38;;;;;;;15.17;70.55;97686.50;5052515;28;20040;-63
2022/06/22 04:48:36;;;;;;;7.75;4.50;;;;;;;15.20;70.73;97685.91;5052985;28;20621;-64
2022/06/22 04:51:04;;;;;;;5.72;3.80;;;;;;;15.25;70.56;97695.66;5051629;28;20072;-65
2022/06/22 04:53:43;;;;;;;4.97;4.00;;;;;;;15.39;69.82;97691.78;5051171;28;20037;-64
2022/06/22 04:56:14;;;;;;;5.43;3.60;;;;;;;15.47;69.18;97706.25;5052518;28;20043;-62
2022/06/22 04:58:46;;;;;;;5.00;3.72;;;;;;;15.49;69.93;97705.94;5052286;28;20044;-63
2022/06/22 05:01:20;;;;;;;5.75;4.15;;;;;;;15.59;69.41;97709.13;5051512;28;20048;-63
2022/06/22 05:03:46;;;;;;;5.53;3.75;;;;;;;15.79;69.03;97698.94;5051376;28;20461;-63
2022/06/22 05:06:19;;;;;;;5.68;3.92;;;;;;;15.91;68.50;97704.47;5051205;28;20407;-64
2022/06/22 05:09:20;;;;;;;4.68;3.75;;;;;;;16.00;68.04;97702.59;5050969;28;20041;-63
2022/06/22 05:11:47;;;;;;;5.07;3.55;;;;;;;16.14;68.03;97713.13;5046708;28;20060;-64
2022/06/22 05:14:19;;;;;;;9.38;3.78;;;;;;;16.39;66.73;97702.75;5052404;28;20053;-64
2022/06/22 05:16:59;;;;;;;5.82;4.03;;;;;;;16.50;66.49;97710.13;5050618;28;20413;-62
2022/06/22 05:19:31;;;;;;;8.20;3.80;;;;;;;16.61;65.99;97710.56;5052093;28;20044;-64
2022/06/22 05:21:57;;;;;;;4.40;3.55;;;;;;;16.66;65.86;97709.63;5017535;28;20037;-63
2022/06/22 05:24:34;;;;;;;6.10;3.50;;;;;;;16.74;65.85;97712.28;5050602;28;20514;-63
2022/06/22 05:27:05;;;;;;;5.80;3.60;;;;;;;16.89;64.82;97713.69;5051997;28;20055;-62
2022/06/22 05:29:36;;;;;;;4.40;3.45;;;;;;;16.91;64.51;97710.69;5050564;28;20045;-64
2022/06/22 05:32:05;;;;;;;4.38;3.45;;;;;;;16.95;64.51;97711.63;5050606;28;20099;-64
2022/06/22 05:34:34;;;;;;;3.83;2.97;;;;;;;16.93;63.88;97722.66;5051866;28;20041;-63
2022/06/22 05:37:07;;;;;;;4.30;3.00;;;;;;;16.92;63.99;97707.72;5033991;28;20303;-63
2022/06/22 05:39:34;;;;;;;4.68;3.20;;;;;;;16.98;63.55;97703.75;5051969;28;20048;-64
2022/06/22 05:42:00;;;;;;;6.18;3.42;;;;;;;17.19;63.68;97706.50;5050316;28;20060;-64
2022/06/22 05:44:26;;;;;;;4.72;3.55;;;;;;;17.27;63.34;97704.13;5050245;28;20068;-65
2022/06/22 05:46:54;;;;;;;3.85;2.92;;;;;;;17.35;62.87;97712.09;5050432;28;20510;-64
2022/06/22 05:49:25;;;;;;;5.30;3.17;;;;;;;17.32;62.91;97694.00;5051639;28;20056;-64
2022/06/22 05:52:09;;;;;;;;;;;;;;;17.30;63.74;97700.81;5050878;28;20045;-64
2022/06/22 05:54:40;;;;;;;3.53;2.72;;;;;;;17.24;63.21;97703.66;5051135;28;19920;-64
2022/06/22 05:57:12;;;;;;;3.42;2.90;;;;;;;17.35;63.22;97714.78;5033769;28;20076;-63
2022/06/22 05:59:56;;;;;;;4.70;3.13;;;;;;;17.38;62.98;97719.50;5050053;28;20045;-63
2022/06/22 06:02:34;;;;;;;4.88;3.15;;;;;;;17.52;62.45;97723.84;5033545;28;20052;-65
2022/06/22 06:05:13;;;;;;;5.82;3.08;;;;;;;17.71;62.60;97746.44;5051518;28;20087;-63
2022/06/22 06:07:45;;;;;;;5.45;3.25;;;;;;;17.80;62.17;97743.75;5051632;28;20143;-65
2022/06/22 06:10:20;;;;;;;5.70;3.00;;;;;;;18.13;61.14;97748.41;5050193;28;20044;-63
2022/06/22 06:13:18;;;;;;;5.43;3.33;;;;;;;18.43;60.48;97748.34;5050970;28;20064;-63
2022/06/22 06:15:45;;;;;;;11.90;7.75;;;;;;;18.76;59.42;97764.47;5050782;28;20053;-64
2022/06/22 06:18:17;;;;;;;4.50;3.22;;;;;;;18.66;58.49;97759.50;5051449;28;20136;-63
2022/06/22 06:20:47;;;;;;;3.85;3.40;;;;;;;18.64;58.83;97757.13;5016808;28;20428;-63
2022/06/22 06:23:32;;;;;;;4.15;3.50;;;;;;;18.56;58.31;97768.72;5049820;28;20048;-65
2022/06/22 06:28:57;;;;;;;9.63;3.60;;;;;;;18.42;58.64;97750.25;5051187;28;20403;-63
2022/06/22 06:31:32;;;;;;;7.28;3.80;;;;;;;18.50;57.95;97751.25;5053882;28;20053;-64
2022/06/22 06:33:58;;;;;;;5.00;3.90;;;;;;;18.59;58.67;97760.81;5053882;28;20075;-63
2022/06/22 06:36:41;;;;;;;4.55;3.40;;;;;;;18.56;59.29;97768.72;5037174;28;20045;-63
2022/06/22 06:39:12;;;;;;;4.68;3.35;;;;;;;18.68;58.33;97776.03;5036910;28;20033;-63
2022/06/22 06:41:45;;;;;;;4.72;3.75;;;;;;;18.74;57.96;97766.72;5053620;28;20045;-64
2022/06/22 06:44:20;;;;;;;5.88;4.07;;;;;;;18.60;57.92;97772.34;5020356;28;20037;-64
2022/06/22 06:46:49;;;;;;;4.55;3.85;;;;;;;18.45;58.66;97775.63;5053672;28;20045;-63
2022/06/22 06:49:35;;;;;;;4.30;3.63;;;;;;;18.37;58.14;97796.81;5055114;28;20048;-63
2022/06/22 06:52:06;;;;;;;4.85;3.78;;;;;;;18.49;57.86;97776.53;5053360;28;20187;-64
2022/06/22 06:54:46;;;;;;;6.65;4.20;;;;;;;18.26;58.16;97784.13;5036801;28;20255;-65
2022/06/22 06:57:18;;;;;;;4.95;4.05;;;;;;;18.28;58.76;97768.50;5053654;28;20052;-64
2022/06/22 06:59:46;;;;;;;9.75;4.95;;;;;;;18.23;58.67;97772.13;5054997;28;20041;-64
2022/06/22 07:02:34;;;;;;;7.07;4.93;;;;;;;18.05;59.21;97770.69;5053262;28;20052;-64
2022/06/22 07:05:02;;;;;;;7.03;4.00;;;;;;;17.91;59.84;97768.25;5053248;28;20036;-64
2022/06/22 07:07:51;;;;;;;4.95;4.30;;;;;;;17.80;60.04;97786.63;5053451;28;20091;-64
2022/06/22 07:10:24;;;;;;;6.93;5.10;;;;;;;17.68;60.08;97784.59;5053501;28;20072;-64
2022/06/22 07:13:14;;;;;;;8.65;4.68;;;;;;;17.95;59.40;97771.09;5019904;28;20056;-64
2022/06/22 07:15:41;;;;;;;5.57;4.55;;;;;;;18.17;58.40;97776.91;5053064;28;20552;-64
2022/06/22 07:18:22;;;;;;;6.20;4.93;;;;;;;18.37;58.46;97778.03;5052768;28;20075;-64
2022/06/22 07:20:57;;;;;;;8.10;3.88;;;;;;;18.46;57.73;97782.56;5054000;28;20029;-64
2022/06/22 07:23:35;;;;;;;4.85;4.20;;;;;;;18.55;57.23;97797.47;5054476;28;20076;-63
2022/06/22 07:26:13;;;;;;;6.50;3.80;;;;;;;18.64;57.19;97791.25;5052820;28;20048;-64
2022/06/22 07:28:42;;;;;;;4.43;3.80;;;;;;;18.92;56.75;97807.63;5053874;28;20137;-63
2022/06/22 07:31:15;;;;;;;5.45;3.75;;;;;;;19.11;55.56;97801.72;5052741;28;20045;-63
2022/06/22 07:34:00;;;;;;;5.32;3.90;;;;;;;19.22;55.14;97800.97;5036955;28;20090;-64
2022/06/22 07:36:42;;;;;;;7.15;4.65;;;;;;;19.35;55.81;97793.72;5052890;28;20067;-64
2022/06/22 07:39:12;;;;;;;6.35;3.88;;;;;;;19.18;54.48;97792.03;5054123;28;20053;-65
2022/06/22 07:41:38;;;;;;;3.70;3.30;;;;;;;19.01;54.50;97800.25;5053282;28;20049;-64
2022/06/22 07:44:11;;;;;;;6.28;3.75;;;;;;;18.84;54.88;97796.59;5052548;28;20106;-64
2022/06/22 07:46:50;;;;;;;4.75;3.38;;;;;;;18.83;54.61;97797.72;5054119;28;20040;-64
2022/06/22 07:49:25;;;;;;;4.80;3.90;;;;;;;18.86;55.18;97800.88;5052460;28;20048;-65
2022/06/22 07:51:54;;;;;;;7.43;3.85;;;;;;;18.96;55.67;97797.78;5053820;28;20560;-64
2022/06/22 07:54:41;;;;;;;5.30;3.75;;;;;;;19.13;55.37;97805.66;5053896;28;20047;-64
2022/06/22 07:57:31;;;;;;;4.32;3.53;;;;;;;19.14;55.50;97801.84;5052451;28;20140;-63
2022/06/22 07:59:58;;;;;;;;;;;;;;;19.21;53.71;97804.78;5054029;28;20041;-64
2022/06/22 08:02:35;;;;;;;8.77;3.80;;;;;;;19.16;54.41;97820.31;5052189;28;19925;-64
2022/06/22 08:05:07;;;;;;;7.75;3.83;;;;;;;19.09;54.49;97820.88;5052183;28;20313;-65
2022/06/22 08:07:42;;;;;;;4.53;3.72;;;;;;;19.01;55.11;97825.19;5052239;28;20041;-65
2022/06/22 08:10:18;;;;;;;4.85;3.50;;;;;;;19.02;54.43;97826.75;5052050;28;20063;-65
2022/06/22 08:12:56;;;;;;;7.32;4.05;;;;;;;19.08;54.64;97837.31;5052036;28;20059;-64
2022/06/22 08:15:22;;;;;;;4.78;3.90;;;;;;;19.01;53.96;97829.78;5051912;28;20191;-64
2022/06/22 08:17:52;;;;;;;9.80;7.13;;;;;;;19.12;54.41;97828.25;5052163;28;20045;-65
2022/06/22 08:20:24;;;;;;;4.03;3.63;;;;;;;19.26;54.11;97836.78;5053197;28;20043;-64
2022/06/22 08:22:50;;;;;;;5.75;4.10;;;;;;;19.46;53.65;97829.78;5035338;28;20060;-65
2022/06/22 08:25:19;;;;;;;6.00;3.17;;;;;;;19.31;53.59;97832.34;5053385;28;20045;-65
2022/06/22 08:27:45;;;;;;;7.15;3.80;;;;;;;19.39;53.80;97845.69;5053498;28;20049;-66
2022/06/22 08:30:12;;;;;;;4.35;3.42;;;;;;;19.47;53.23;97828.69;5052913;28;20506;-66
2022/06/22 08:32:40;;;;;;;9.57;3.10;;;;;;;19.46;52.97;97834.38;5051817;28;20123;-64
2022/06/22 08:35:30;;;;;;;5.90;3.38;;;;;;;19.40;53.45;97841.88;5052756;28;20542;-65
2022/06/22 08:38:09;;;;;;;4.10;3.40;;;;;;;19.56;53.04;97842.03;5051635;28;20052;-65
2022/06/22 08:40:53;;;;;;;3.33;3.00;;;;;;;19.67;52.73;97853.91;5051720;28;20036;-65
2022/06/22 08:43:22;;;;;;;7.07;4.20;;;;;;;19.76;52.54;97853.81;5052993;28;20076;-64
2022/06/22 08:45:50;;;;;;;8.15;3.47;;;;;;;19.72;52.29;97861.75;5052951;28;20449;-64
2022/06/22 08:48:28;;;;;;;6.03;3.28;;;;;;;19.96;51.64;97861.00;5053043;28;20051;-64
2022/06/22 08:50:59;;;;;;;4.10;3.35;;;;;;;20.22;51.19;97867.16;5051354;28;20502;-64
2022/06/22 08:53:39;;;;;;;7.70;3.97;;;;;;;20.55;51.05;97856.25;5051048;28;20063;-64
2022/06/22 08:56:43;;;;;;;4.10;3.00;;;;;;;20.37;51.07;97869.16;5052337;28;20045;-65
2022/06/22 08:59:40;;;;;;;4.68;3.30;;;;;;;20.68;49.98;97859.69;5040677;28;20056;-64
2022/06/22 09:02:25;;;;;;;3.95;3.22;;;;;;;20.95;48.29;97874.31;5034509;28;20136;-64
2022/06/22 09:04:51;;;;;;;4.68;3.00;;;;;;;20.87;47.74;97860.66;5051064;28;20045;-65
2022/06/22 09:07:31;;;;;;;8.30;3.10;;;;;;;20.74;46.96;97866.44;5052133;28;20060;-66
2022/06/22 09:10:34;;;;;;;5.60;2.78;;;;;;;20.71;46.76;97881.34;5052346;28;20083;-64
2022/06/22 09:13:31;;;;;;;5.72;2.88;;;;;;;20.70;47.05;97860.91;5051982;28;20187;-63
2022/06/22 09:16:18;;;;;;;5.25;3.72;;;;;;;20.74;48.12;97877.97;5052351;28;20122;-66
2022/06/22 09:19:02;;;;;;;4.50;3.28;;;;;;;20.93;47.92;97877.34;5034218;28;20041;-65
2022/06/22 09:21:38;;;;;;;7.82;6.65;;;;;;;20.73;47.41;97868.31;5034012;28;20511;-65
2022/06/22 09:24:10;;;;;;;9.82;7.20;;;;;;;20.69;48.18;97867.44;5051842;28;20518;-65
2022/06/22 09:26:48;;;;;;;6.65;3.95;;;;;;;20.79;48.09;97858.09;5052209;28;20519;-65
2022/06/22 09:29:42;;;;;;;8.43;5.30;;;;;;;20.62;48.83;97872.63;5051950;28;20040;-65
2022/06/22 09:32:17;;;;;;;5.05;3.10;;;;;;;20.39;48.54;97864.22;5052207;28;20048;-65
2022/06/22 09:34:54;;;;;;;6.88;4.85;;;;;;;20.18;49.08;97864.38;5051795;28;20041;-65
2022/06/22 09:37:39;;;;;;;5.28;3.90;;;;;;;19.92;49.93;97884.31;5050522;28;20041;-65
2022/06/22 09:40:14;;;;;;;4.85;4.35;;;;;;;19.88;50.68;97879.91;5051633;28;20106;-65
2022/06/22 09:43:07;;;;;;;8.10;3.85;;;;;;;19.99;51.26;97866.81;5051908;28;20071;-64
2022/06/22 09:46:01;;;;;;;4.88;4.20;;;;;;;20.13;51.76;97870.75;5051734;28;20047;-63
2022/06/22 09:48:51;;;;;;;4.03;3.40;;;;;;;20.44;50.53;97880.13;5051384;28;20049;-65
2022/06/22 09:51:42;;;;;;;3.85;3.47;;;;;;;20.34;50.69;97872.53;5051733;28;20099;-64
2022/06/22 09:57:16;;;;;;;5.97;4.05;;;;;;;20.40;49.92;97880.03;5051642;28;20521;-65
2022/06/22 10:00:08;;;;;;;7.13;4.18;;;;;;;20.51;49.34;97880.34;5050138;28;20041;-65
2022/06/22 10:02:56;;;;;;;8.30;3.42;;;;;;;20.49;48.41;97882.59;5050131;28;20053;-64
2022/06/22 10:05:27;;;;;;;8.88;3.92;;;;;;;20.52;49.36;97881.94;5051499;28;20077;-65
2022/06/22 10:08:02;;;;;;;5.82;3.78;;;;;;;20.49;50.51;97890.66;5051584;28;20071;-64
2022/06/22 10:10:47;;;;;;;17.33;4.65;;;;;;;20.33;52.21;97892.50;5051560;28;20064;-67
2022/06/22 10:13:34;;;;;;;5.90;3.70;;;;;;;20.34;52.50;97886.75;5049702;28;20094;-65
2022/06/22 10:16:52;;;;;;;5.22;3.85;;;;;;;20.45;51.72;97902.47;5051454;28;20067;-66
2022/06/22 10:19:49;;;;;;;7.25;3.67;;;;;;;20.07;52.40;97901.69;5050930;28;20045;-63
2022/06/22 10:22:59;;;;;;;5.32;3.70;;;;;;;19.79;52.86;97873.88;5049738;28;20056;-65
2022/06/22 10:25:28;;;;;;;6.70;3.70;;;;;;;20.09;51.89;97904.03;5050887;28;20127;-64
2022/06/22 10:28:10;;;;;;;5.72;3.63;;;;;;;19.95;52.59;97915.13;5051322;28;20044;-64
2022/06/22 10:30:50;;;;;;;4.10;3.42;;;;;;;19.99;52.22;97891.03;5033110;28;20572;-63
2022/06/22 10:33:36;;;;;;;3.95;3.55;;;;;;;20.12;51.99;97914.13;5049959;28;20626;-65
2022/06/22 10:36:30;;;;;;;3.88;3.17;;;;;;;19.92;50.86;97931.94;5032949;28;20550;-65
2022/06/22 10:39:13;;;;;;;5.85;2.90;;;;;;;19.93;49.96;97930.81;5051075;28;20082;-65
2022/06/22 10:47:47;;;;;;;4.63;2.85;;;;;;;19.98;50.04;97930.59;5049436;28;20037;-64
2022/06/22 10:50:48;;;;;;;3.80;3.20;;;;;;;19.92;51.02;97921.19;5033076;28;20080;-64
2022/06/22 10:53:47;;;;;;;6.10;3.42;;;;;;;19.81;49.74;97920.81;5049711;28;20514;-64
2022/06/22 10:56:38;;;;;;;8.02;2.72;;;;;;;19.74;49.41;97942.88;5050809;28;20454;-65
2022/06/22 10:59:03;;;;;;;;;;;;;;;19.79;48.81;97941.88;5049892;28;20044;-65
2022/06/22 11:01:40;;;;;;;2.58;2.33;;;;;;;19.76;47.23;97952.50;5049463;28;19924;-65
2022/06/22 11:04:33;;;;;;;4.85;2.50;;;;;;;19.60;47.50;97957.72;5049368;28;20418;-65
2022/06/22 11:07:06;;;;;;;5.35;2.28;;;;;;;19.59;46.44;97954.25;5049419;28;20508;-63
2022/06/22 11:09:57;;;;;;;2.72;1.90;;;;;;;19.53;46.64;97958.25;5049556;28;20059;-62
2022/06/22 11:12:38;;;;;;;3.45;2.50;;;;;;;19.62;47.71;97939.31;5050161;28;20060;-64
2022/06/22 11:15:16;;;;;;;3.72;2.10;;;;;;;19.77;47.12;97957.56;5049307;28;20126;-65
2022/06/22 11:18:17;;;;;;;2.55;2.10;;;;;;;19.78;47.30;97971.78;5053073;28;20068;-63
2022/06/22 11:21:20;;;;;;;2.35;1.85;;;;;;;19.69;46.00;97964.59;5053071;28;20049;-66
2022/06/22 11:24:05;;;;;;;2.03;1.70;;;;;;;19.74;46.43;97947.47;5051775;28;20055;-63
2022/06/22 11:33:16;;;;;;;6.63;1.90;;;;;;;20.01;44.34;97947.97;5054398;28;20061;-63
2022/06/22 11:35:56;;;;;;;1.60;1.50;;;;;;;20.04;43.55;97958.84;5054100;28;20132;-63
2022/06/22 11:38:22;;;;;;;2.90;1.50;;;;;;;20.12;44.06;97941.81;5054233;28;20094;-64
2022/06/22 11:40:59;;;;;;;1.70;1.58;;;;;;;20.03;44.79;97951.91;5052987;28;20548;-65
2022/06/22 11:43:38;;;;;;;4.50;1.95;;;;;;;20.10;44.71;97962.09;5036142;28;20048;-64
2022/06/22 11:46:25;;;;;;;2.13;1.93;;;;;;;20.13;45.32;97956.06;5052777;28;20048;-64
2022/06/22 11:49:03;;;;;;;2.92;2.00;;;;;;;20.34;45.80;97955.94;5036146;28;20413;-64
2022/06/22 11:51:59;;;;;;;4.25;2.00;;;;;;;20.51;44.66;97941.47;5053738;28;20393;-65
2022/06/22 11:54:51;;;;;;;2.45;2.10;;;;;;;20.68;44.44;97935.06;5052210;28;20049;-64
2022/06/22 11:57:29;;;;;;;2.28;1.90;;;;;;;20.79;45.21;97958.50;5053552;28;20045;-65
2022/06/22 12:00:06;;;;;;;3.97;2.42;;;;;;;20.80;44.98;97954.72;5053379;28;20045;-63
2022/06/22 12:03:07;;;;;;;3.42;2.17;;;;;;;20.57;45.50;97956.31;5053725;28;20040;-63
2022/06/22 12:05:58;;;;;;;2.55;2.00;;;;;;;20.48;46.75;97953.69;5052013;28;20057;-63
2022/06/22 12:08:35;;;;;;;2.42;1.85;;;;;;;20.55;43.74;97961.22;5052157;28;20149;-65
2022/06/22 12:11:15;;;;;;;3.17;1.90;;;;;;;20.77;43.39;97949.22;5053486;28;20120;-64
2022/06/22 12:16:50;;;;;;;;;;;;;;;20.87;43.62;97946.03;5053655;28;20011;-64
2022/06/22 12:19:45;;;;;;;4.57;1.70;;;;;;;20.72;44.95;97952.13;5052164;28;20398;-64
2022/06/22 12:22:27;;;;;;;2.38;1.75;;;;;;;20.58;45.95;97961.34;5053314;28;20098;-65
2022/06/22 12:25:22;;;;;;;4.38;2.13;;;;;;;20.45;46.98;97967.06;5052808;28;20067;-64
2022/06/22 12:28:14;;;;;;;2.17;1.80;;;;;;;20.39;47.15;97978.03;5051374;28;20045;-64
2022/06/22 12:31:09;;;;;;;2.38;2.17;;;;;;;20.43;46.66;97968.16;5053004;28;20049;-64
2022/06/22 12:33:37;;;;;;;2.65;1.92;;;;;;;20.36;45.84;97959.88;5051486;28;20049;-65
2022/06/22 12:36:03;;;;;;;2.92;1.92;;;;;;;20.49;45.63;97960.66;5051459;28;20048;-64
2022/06/22 12:38:39;;;;;;;3.78;2.05;;;;;;;20.71;45.42;97953.28;5051545;28;20049;-64
2022/06/22 12:41:14;;;;;;;3.40;2.20;;;;;;;20.75;45.70;97963.00;5052525;28;20613;-65
2022/06/22 12:43:42;;;;;;;2.58;2.38;;;;;;;20.71;46.41;97948.66;5052471;28;20510;-64
2022/06/22 12:46:41;;;;;;;1.90;1.80;;;;;;;20.62;45.51;97986.47;5034693;28;20041;-65
2022/06/22 12:49:19;;;;;;;1.83;1.70;;;;;;;20.67;44.69;97961.22;5040549;28;20053;-63